首页
METAR-TAF:

METAR-TAF

机场 :

巴林国际机场

巴林, 巴林

纬度: 26-16N, 经度: 050-39E, 海拔: 2米

当前天气观测

该预报发布于11分钟前的04:00 UTC
风速3节,风向西南,在南转西南西之间变化
温度 35°C
湿度 32%
气压 1006 hPa
能见度10公里或以上
1500米以下无云,无积雨云

METAR: OBBI 270400Z 23003KT 210V270 CAVOK 35/16 Q1006 NOSIG

时间: 07:11 (04:11 UTC)

预报

该预报发布于5小时和11分钟前的23:00 UTC
预报有效从27日的 00点(UTC)到 28日的 06点(UTC)
风速5节,风向多变
能見度: 8000
成为
从 27日的 09点(UTC)到 27日的 11点(UTC)
风速10节,风向东北
成为
从 27日的 16点(UTC)到 27日的 18点(UTC)
风速5节,风向多变

TAF: OBBI 262300Z 2700/2806 VRB05KT 8000 NSC BECMG 2709/2711 05010KT BECMG 2716/2718 VRB05KT

超过4000个机场的气象观测和天气预报(METAR&TAF报告)。

可查询的气象台以黄色和红色小点在地图上表示。

将鼠标移到小点上方,可查看气象台名称。

然后点击查看天气观测和预报。

如需切换地图:点击带黑十字的绿色按钮放大地图;点击带横线的绿色按钮缩小地图;或者点击绿色箭头查看邻近地区的地图。


METAR-TAF: